メインページ
METAR-TAF:

METAR-TAF

空港 :

Cherry Capital Airport

Traverse City, ミシガン州, アメリカ合衆国

緯度: 44-44-12N, 経度: 085-34-12W, 海抜: 190m

現時点の気象観測

当レポートは41分前の08:16(UTC)に作成
北/北西の風 10kt、最大19ktの突風を伴う
気温 -2°C
湿度 74%
気圧 1008 hPa
視程: 4.8km
高度1700ftの千切れ雲あり
高度2500ftの曇り
小雪

METAR: KTVC 150816Z AUTO 33010G19KT 3SM -SN BKN017 OVC025 M02/M06 A2978 RMK AO2 P0000 T10221061 $

時間: 03:57 (08:57 UTC)

予報

当レポートは33分前の08:24(UTC)に作成
予報は15日の 08時(UTC)から 16日の 06時(UTC)まで有効
北西の風 11kt、最大21ktの突風を伴う
視程: 10km
高度2500ftの曇り
弱いにわか雪
15日の 08時(UTC)から 15日の 12時(UTC)まで一時的に
視程: 4.8km
高度1500ftの千切れ雲あり
高度2500ftの曇り
弱いにわか雪
15日の 1200時(UTC)から
北/北西の風 11kt、最大19ktの突風を伴う
視程: 10km
高度2800ftの曇り
近辺でにわか雨
15日の 1700時(UTC)から
西/北西の風 8kt
視程: 10km
高度3500ftの千切れ雲あり
15日の 2300時(UTC)から
西/南西の風 6kt
視程: 10km
高度6000ftの千切れ雲あり

TAF: KTVC 150824Z 1508/1606 32011G21KT P6SM -SHSN OVC025 TEMPO 1508/1512 3SM -SHSN BKN015 OVC025 FM151200 33011G19KT P6SM VCSH OVC028 FM151700 29008KT P6SM BKN035 FM152300 25006KT P6SM BKN060

4,000以上の空港の気象観測と天気予報(METAR報とTAF報)

利用可能な観測所は地図上に黄色い丸と赤い丸で示す。

丸の上にカーソルを重ねると観測所名を参照できる。

次にクリックすると気象観測と天気予報を参照できる。

マップの切り替え:黒色「×」印の緑ボタンをクリックして拡大、「-」印の緑ボタンをクリックして縮小、緑色の三角印をクリックして隣りの地図に切り替え


METAR-TAF: